sensor_id;sensor_type;location;lat;lon;timestamp;temperature;humidity
45735;DHT22;31446;49.632;8.328;2023-07-31T00:07:16;19.20;99.90
45735;DHT22;31446;49.632;8.328;2023-07-31T00:22:22;18.90;99.90
45735;DHT22;31446;49.632;8.328;2023-07-31T00:37:28;18.70;99.90
45735;DHT22;31446;49.632;8.328;2023-07-31T00:52:35;18.50;99.90
45735;DHT22;31446;49.632;8.328;2023-07-31T01:23:46;18.30;99.90
45735;DHT22;31446;49.632;8.328;2023-07-31T01:39:01;18.20;99.90
45735;DHT22;31446;49.632;8.328;2023-07-31T01:54:07;18.10;99.90
45735;DHT22;31446;49.632;8.328;2023-07-31T02:09:14;18.10;99.90
45735;DHT22;31446;49.632;8.328;2023-07-31T02:24:20;18.00;99.90
45735;DHT22;31446;49.632;8.328;2023-07-31T02:39:26;17.80;99.90
45735;DHT22;31446;49.632;8.328;2023-07-31T02:54:32;17.80;99.90
45735;DHT22;31446;49.632;8.328;2023-07-31T03:09:38;17.90;99.90
45735;DHT22;31446;49.632;8.328;2023-07-31T03:24:44;17.90;99.90
45735;DHT22;31446;49.632;8.328;2023-07-31T03:39:51;17.90;99.90
45735;DHT22;31446;49.632;8.328;2023-07-31T03:54:57;17.80;99.90
45735;DHT22;31446;49.632;8.328;2023-07-31T04:10:03;17.70;99.90
45735;DHT22;31446;49.632;8.328;2023-07-31T04:25:10;17.90;99.90
45735;DHT22;31446;49.632;8.328;2023-07-31T04:40:16;17.90;99.90
45735;DHT22;31446;49.632;8.328;2023-07-31T04:55:22;17.90;99.90
45735;DHT22;31446;49.632;8.328;2023-07-31T05:10:28;18.10;99.90
45735;DHT22;31446;49.632;8.328;2023-07-31T05:25:34;18.30;99.90
45735;DHT22;31446;49.632;8.328;2023-07-31T05:40:42;18.40;99.90
45735;DHT22;31446;49.632;8.328;2023-07-31T05:55:48;18.90;99.90
45735;DHT22;31446;49.632;8.328;2023-07-31T06:10:55;19.50;99.90
45735;DHT22;31446;49.632;8.328;2023-07-31T06:26:01;19.80;99.90
45735;DHT22;31446;49.632;8.328;2023-07-31T06:41:07;20.30;99.90
45735;DHT22;31446;49.632;8.328;2023-07-31T06:56:13;20.50;99.90
45735;DHT22;31446;49.632;8.328;2023-07-31T07:11:19;20.70;99.90
45735;DHT22;31446;49.632;8.328;2023-07-31T07:26:25;20.90;99.90
45735;DHT22;31446;49.632;8.328;2023-07-31T07:41:31;21.30;99.90
45735;DHT22;31446;49.632;8.328;2023-07-31T07:56:38;21.90;99.90
45735;DHT22;31446;49.632;8.328;2023-07-31T08:11:44;22.10;99.90
45735;DHT22;31446;49.632;8.328;2023-07-31T08:26:52;22.10;99.90
45735;DHT22;31446;49.632;8.328;2023-07-31T08:42:00;22.70;99.90
45735;DHT22;31446;49.632;8.328;2023-07-31T08:57:07;24.10;99.90
45735;DHT22;31446;49.632;8.328;2023-07-31T09:12:13;24.20;99.90
45735;DHT22;31446;49.632;8.328;2023-07-31T09:27:19;24.50;99.90
45735;DHT22;31446;49.632;8.328;2023-07-31T09:42:28;23.90;99.90
45735;DHT22;31446;49.632;8.328;2023-07-31T09:57:39;24.40;99.90
45735;DHT22;31446;49.632;8.328;2023-07-31T10:12:47;24.30;99.90
45735;DHT22;31446;49.632;8.328;2023-07-31T10:27:54;24.30;99.90
45735;DHT22;31446;49.632;8.328;2023-07-31T10:43:01;24.30;99.90
45735;DHT22;31446;49.632;8.328;2023-07-31T10:58:12;24.50;99.90
45735;DHT22;31446;49.632;8.328;2023-07-31T11:13:18;23.90;99.90
45735;DHT22;31446;49.632;8.328;2023-07-31T11:28:24;23.10;99.90
45735;DHT22;31446;49.632;8.328;2023-07-31T11:43:31;23.50;99.90
45735;DHT22;31446;49.632;8.328;2023-07-31T11:58:39;24.00;99.90
45735;DHT22;31446;49.632;8.328;2023-07-31T12:13:46;25.00;99.90
45735;DHT22;31446;49.632;8.328;2023-07-31T12:28:54;25.40;99.90
45735;DHT22;31446;49.632;8.328;2023-07-31T12:44:02;25.00;99.90
45735;DHT22;31446;49.632;8.328;2023-07-31T12:59:08;24.80;99.90
45735;DHT22;31446;49.632;8.328;2023-07-31T13:14:14;25.00;99.90
45735;DHT22;31446;49.632;8.328;2023-07-31T13:29:20;25.10;99.90
45735;DHT22;31446;49.632;8.328;2023-07-31T13:44:27;24.70;99.90
45735;DHT22;31446;49.632;8.328;2023-07-31T13:59:33;24.70;99.90
45735;DHT22;31446;49.632;8.328;2023-07-31T14:14:39;24.00;99.90
45735;DHT22;31446;49.632;8.328;2023-07-31T14:29:45;24.30;99.90
45735;DHT22;31446;49.632;8.328;2023-07-31T14:44:52;24.60;99.90
45735;DHT22;31446;49.632;8.328;2023-07-31T14:59:58;24.50;99.90
45735;DHT22;31446;49.632;8.328;2023-07-31T15:15:05;24.20;99.90
45735;DHT22;31446;49.632;8.328;2023-07-31T15:30:12;24.10;99.90
45735;DHT22;31446;49.632;8.328;2023-07-31T15:45:18;24.60;99.90
45735;DHT22;31446;49.632;8.328;2023-07-31T16:00:24;24.50;99.90
45735;DHT22;31446;49.632;8.328;2023-07-31T16:15:30;24.00;99.90
45735;DHT22;31446;49.632;8.328;2023-07-31T16:30:38;23.40;99.90
45735;DHT22;31446;49.632;8.328;2023-07-31T16:45:45;22.60;99.90
45735;DHT22;31446;49.632;8.328;2023-07-31T17:00:52;22.10;99.90
45735;DHT22;31446;49.632;8.328;2023-07-31T17:16:02;21.80;99.90
45735;DHT22;31446;49.632;8.328;2023-07-31T17:31:09;21.30;99.90
45735;DHT22;31446;49.632;8.328;2023-07-31T17:46:15;20.90;99.90
45735;DHT22;31446;49.632;8.328;2023-07-31T18:01:22;20.80;99.90
45735;DHT22;31446;49.632;8.328;2023-07-31T18:16:28;20.70;99.90
45735;DHT22;31446;49.632;8.328;2023-07-31T18:31:34;20.20;99.90
45735;DHT22;31446;49.632;8.328;2023-07-31T18:46:40;19.90;99.90
45735;DHT22;31446;49.632;8.328;2023-07-31T19:01:49;19.50;99.90
45735;DHT22;31446;49.632;8.328;2023-07-31T19:16:55;19.30;99.90
45735;DHT22;31446;49.632;8.328;2023-07-31T19:32:01;19.40;99.90
45735;DHT22;31446;49.632;8.328;2023-07-31T19:47:10;19.30;99.90
45735;DHT22;31446;49.632;8.328;2023-07-31T20:02:16;19.20;99.90
45735;DHT22;31446;49.632;8.328;2023-07-31T20:17:55;19.10;99.90
45735;DHT22;31446;49.632;8.328;2023-07-31T20:33:16;19.00;99.90
45735;DHT22;31446;49.632;8.328;2023-07-31T20:48:22;18.90;99.90
45735;DHT22;31446;49.632;8.328;2023-07-31T21:03:28;18.90;99.90
45735;DHT22;31446;49.632;8.328;2023-07-31T21:18:35;18.80;99.90
45735;DHT22;31446;49.632;8.328;2023-07-31T21:33:41;18.90;99.90
45735;DHT22;31446;49.632;8.328;2023-07-31T21:48:47;18.90;99.90
45735;DHT22;31446;49.632;8.328;2023-07-31T22:03:53;18.80;99.90
45735;DHT22;31446;49.632;8.328;2023-07-31T22:18:59;18.80;99.90
45735;DHT22;31446;49.632;8.328;2023-07-31T22:34:06;18.50;99.90
45735;DHT22;31446;49.632;8.328;2023-07-31T22:49:12;18.40;99.90
45735;DHT22;31446;49.632;8.328;2023-07-31T23:04:18;18.30;99.90
45735;DHT22;31446;49.632;8.328;2023-07-31T23:19:24;18.30;99.90
45735;DHT22;31446;49.632;8.328;2023-07-31T23:34:30;18.30;99.90
45735;DHT22;31446;49.632;8.328;2023-07-31T23:49:36;18.20;99.90
